sensor_id;sensor_type;location;lat;lon;timestamp;P1;durP1;ratioP1;P2;durP2;ratioP2
48161;SDS011;33950;48.154;16.316;2022-12-18T00:01:39;27.90;;;11.93;;
48161;SDS011;33950;48.154;16.316;2022-12-18T00:04:26;26.08;;;10.75;;
48161;SDS011;33950;48.154;16.316;2022-12-18T00:07:13;29.42;;;12.00;;
48161;SDS011;33950;48.154;16.316;2022-12-18T00:09:59;23.42;;;10.77;;
48161;SDS011;33950;48.154;16.316;2022-12-18T00:12:45;28.00;;;11.23;;
48161;SDS011;33950;48.154;16.316;2022-12-18T00:15:33;30.00;;;11.32;;
48161;SDS011;33950;48.154;16.316;2022-12-18T00:18:19;27.38;;;11.00;;
48161;SDS011;33950;48.154;16.316;2022-12-18T00:21:08;31.00;;;11.05;;
48161;SDS011;33950;48.154;16.316;2022-12-18T00:23:57;24.45;;;10.63;;
48161;SDS011;33950;48.154;16.316;2022-12-18T00:26:44;27.58;;;11.32;;
48161;SDS011;33950;48.154;16.316;2022-12-18T00:29:30;25.40;;;10.23;;
48161;SDS011;33950;48.154;16.316;2022-12-18T00:32:16;27.27;;;10.65;;
48161;SDS011;33950;48.154;16.316;2022-12-18T00:35:02;20.50;;;9.55;;
48161;SDS011;33950;48.154;16.316;2022-12-18T00:37:49;22.25;;;9.32;;
48161;SDS011;33950;48.154;16.316;2022-12-18T00:40:36;22.45;;;10.25;;
48161;SDS011;33950;48.154;16.316;2022-12-18T00:43:22;26.45;;;10.02;;
48161;SDS011;33950;48.154;16.316;2022-12-18T00:46:08;25.23;;;9.90;;
48161;SDS011;33950;48.154;16.316;2022-12-18T00:48:54;21.48;;;9.80;;
48161;SDS011;33950;48.154;16.316;2022-12-18T00:51:41;25.13;;;9.18;;
48161;SDS011;33950;48.154;16.316;2022-12-18T00:54:27;21.85;;;9.63;;
48161;SDS011;33950;48.154;16.316;2022-12-18T00:57:14;25.23;;;10.50;;
48161;SDS011;33950;48.154;16.316;2022-12-18T01:00:00;22.70;;;8.60;;
48161;SDS011;33950;48.154;16.316;2022-12-18T01:02:47;23.02;;;8.85;;
48161;SDS011;33950;48.154;16.316;2022-12-18T01:05:33;24.33;;;9.05;;
48161;SDS011;33950;48.154;16.316;2022-12-18T01:08:19;23.98;;;9.55;;
48161;SDS011;33950;48.154;16.316;2022-12-18T01:11:07;27.25;;;10.20;;
48161;SDS011;33950;48.154;16.316;2022-12-18T01:13:55;22.02;;;9.32;;
48161;SDS011;33950;48.154;16.316;2022-12-18T01:16:41;23.17;;;8.82;;
48161;SDS011;33950;48.154;16.316;2022-12-18T01:19:27;20.70;;;9.45;;
48161;SDS011;33950;48.154;16.316;2022-12-18T01:22:13;19.95;;;9.10;;
48161;SDS011;33950;48.154;16.316;2022-12-18T01:24:59;22.88;;;8.95;;
48161;SDS011;33950;48.154;16.316;2022-12-18T01:27:45;15.88;;;7.85;;
48161;SDS011;33950;48.154;16.316;2022-12-18T01:30:33;16.60;;;7.45;;
48161;SDS011;33950;48.154;16.316;2022-12-18T01:33:19;17.23;;;8.00;;
48161;SDS011;33950;48.154;16.316;2022-12-18T01:36:05;20.02;;;8.80;;
48161;SDS011;33950;48.154;16.316;2022-12-18T01:38:52;18.45;;;8.32;;
48161;SDS011;33950;48.154;16.316;2022-12-18T01:41:39;20.35;;;8.30;;
48161;SDS011;33950;48.154;16.316;2022-12-18T01:47:54;25.48;;;8.75;;
48161;SDS011;33950;48.154;16.316;2022-12-18T01:50:41;24.15;;;9.63;;
48161;SDS011;33950;48.154;16.316;2022-12-18T01:53:28;24.25;;;9.38;;
48161;SDS011;33950;48.154;16.316;2022-12-18T01:56:15;40.10;;;12.10;;
48161;SDS011;33950;48.154;16.316;2022-12-18T01:59:03;26.95;;;11.02;;
48161;SDS011;33950;48.154;16.316;2022-12-18T02:01:53;28.77;;;11.20;;
48161;SDS011;33950;48.154;16.316;2022-12-18T02:04:40;32.08;;;12.98;;
48161;SDS011;33950;48.154;16.316;2022-12-18T02:07:29;30.52;;;12.93;;
48161;SDS011;33950;48.154;16.316;2022-12-18T02:10:24;33.83;;;12.85;;
48161;SDS011;33950;48.154;16.316;2022-12-18T02:13:16;32.38;;;11.63;;
48161;SDS011;33950;48.154;16.316;2022-12-18T02:16:07;37.65;;;13.00;;
48161;SDS011;33950;48.154;16.316;2022-12-18T02:19:03;31.83;;;12.88;;
48161;SDS011;33950;48.154;16.316;2022-12-18T02:22:00;33.22;;;13.00;;
48161;SDS011;33950;48.154;16.316;2022-12-18T02:24:59;32.25;;;12.80;;
48161;SDS011;33950;48.154;16.316;2022-12-18T02:27:58;32.03;;;13.45;;
48161;SDS011;33950;48.154;16.316;2022-12-18T02:30:47;30.30;;;12.80;;
48161;SDS011;33950;48.154;16.316;2022-12-18T02:33:36;34.15;;;12.90;;
48161;SDS011;33950;48.154;16.316;2022-12-18T02:36:24;38.63;;;13.85;;
48161;SDS011;33950;48.154;16.316;2022-12-18T02:39:12;34.70;;;13.90;;
48161;SDS011;33950;48.154;16.316;2022-12-18T02:42:00;35.35;;;14.35;;
48161;SDS011;33950;48.154;16.316;2022-12-18T02:44:55;37.38;;;15.30;;
48161;SDS011;33950;48.154;16.316;2022-12-18T02:47:42;32.38;;;13.63;;
48161;SDS011;33950;48.154;16.316;2022-12-18T02:50:33;41.45;;;14.45;;
48161;SDS011;33950;48.154;16.316;2022-12-18T02:56:13;33.80;;;13.07;;
48161;SDS011;33950;48.154;16.316;2022-12-18T02:59:04;22.88;;;9.35;;
48161;SDS011;33950;48.154;16.316;2022-12-18T03:01:57;33.88;;;12.55;;
48161;SDS011;33950;48.154;16.316;2022-12-18T03:04:47;29.48;;;12.30;;
48161;SDS011;33950;48.154;16.316;2022-12-18T03:07:41;30.70;;;12.63;;
48161;SDS011;33950;48.154;16.316;2022-12-18T03:10:32;27.98;;;11.30;;
48161;SDS011;33950;48.154;16.316;2022-12-18T03:13:23;31.80;;;11.15;;
48161;SDS011;33950;48.154;16.316;2022-12-18T03:16:19;26.95;;;11.68;;
48161;SDS011;33950;48.154;16.316;2022-12-18T03:19:11;27.10;;;12.18;;
48161;SDS011;33950;48.154;16.316;2022-12-18T03:22:02;31.27;;;12.32;;
48161;SDS011;33950;48.154;16.316;2022-12-18T03:24:50;29.67;;;12.13;;
48161;SDS011;33950;48.154;16.316;2022-12-18T03:27:37;26.73;;;12.40;;
48161;SDS011;33950;48.154;16.316;2022-12-18T03:30:33;31.90;;;12.20;;
48161;SDS011;33950;48.154;16.316;2022-12-18T03:33:23;30.23;;;12.52;;
48161;SDS011;33950;48.154;16.316;2022-12-18T03:36:15;33.20;;;13.15;;
48161;SDS011;33950;48.154;16.316;2022-12-18T03:39:01;31.80;;;13.13;;
48161;SDS011;33950;48.154;16.316;2022-12-18T03:41:49;30.92;;;13.23;;
48161;SDS011;33950;48.154;16.316;2022-12-18T03:44:39;27.70;;;12.15;;
48161;SDS011;33950;48.154;16.316;2022-12-18T03:47:30;33.40;;;13.88;;
48161;SDS011;33950;48.154;16.316;2022-12-18T03:50:25;35.50;;;12.98;;
48161;SDS011;33950;48.154;16.316;2022-12-18T03:53:20;28.40;;;12.02;;
48161;SDS011;33950;48.154;16.316;2022-12-18T03:56:14;30.05;;;11.27;;
48161;SDS011;33950;48.154;16.316;2022-12-18T03:59:02;34.83;;;13.70;;
48161;SDS011;33950;48.154;16.316;2022-12-18T04:01:50;33.47;;;13.70;;
48161;SDS011;33950;48.154;16.316;2022-12-18T04:04:38;34.65;;;12.63;;
48161;SDS011;33950;48.154;16.316;2022-12-18T04:07:25;29.58;;;13.07;;
48161;SDS011;33950;48.154;16.316;2022-12-18T04:10:14;32.28;;;12.95;;
48161;SDS011;33950;48.154;16.316;2022-12-18T04:13:02;32.65;;;12.95;;
48161;SDS011;33950;48.154;16.316;2022-12-18T04:15:48;36.33;;;12.73;;
48161;SDS011;33950;48.154;16.316;2022-12-18T04:18:34;31.25;;;12.48;;
48161;SDS011;33950;48.154;16.316;2022-12-18T04:21:20;31.67;;;12.80;;
48161;SDS011;33950;48.154;16.316;2022-12-18T04:24:08;40.47;;;14.70;;
48161;SDS011;33950;48.154;16.316;2022-12-18T04:26:55;42.40;;;16.73;;
48161;SDS011;33950;48.154;16.316;2022-12-18T04:29:41;41.28;;;14.30;;
48161;SDS011;33950;48.154;16.316;2022-12-18T04:32:27;38.60;;;14.70;;
48161;SDS011;33950;48.154;16.316;2022-12-18T04:35:13;35.13;;;14.18;;
48161;SDS011;33950;48.154;16.316;2022-12-18T04:37:59;41.42;;;15.88;;
48161;SDS011;33950;48.154;16.316;2022-12-18T04:40:45;35.65;;;14.75;;
48161;SDS011;33950;48.154;16.316;2022-12-18T04:43:33;32.75;;;13.60;;
48161;SDS011;33950;48.154;16.316;2022-12-18T04:46:19;34.17;;;13.93;;
48161;SDS011;33950;48.154;16.316;2022-12-18T04:49:05;40.78;;;14.90;;
48161;SDS011;33950;48.154;16.316;2022-12-18T04:51:51;38.97;;;14.73;;
48161;SDS011;33950;48.154;16.316;2022-12-18T04:54:38;34.88;;;14.25;;
48161;SDS011;33950;48.154;16.316;2022-12-18T04:57:24;36.85;;;15.32;;
48161;SDS011;33950;48.154;16.316;2022-12-18T05:00:12;34.05;;;14.32;;
48161;SDS011;33950;48.154;16.316;2022-12-18T05:03:00;37.50;;;14.05;;
48161;SDS011;33950;48.154;16.316;2022-12-18T05:05:48;40.40;;;15.02;;
48161;SDS011;33950;48.154;16.316;2022-12-18T05:08:35;38.60;;;15.35;;
48161;SDS011;33950;48.154;16.316;2022-12-18T05:11:21;35.67;;;14.43;;
48161;SDS011;33950;48.154;16.316;2022-12-18T05:14:07;36.67;;;15.07;;
48161;SDS011;33950;48.154;16.316;2022-12-18T05:16:55;39.08;;;15.65;;
48161;SDS011;33950;48.154;16.316;2022-12-18T05:19:41;36.42;;;15.10;;
48161;SDS011;33950;48.154;16.316;2022-12-18T05:22:27;39.30;;;15.32;;
48161;SDS011;33950;48.154;16.316;2022-12-18T05:25:13;37.40;;;15.57;;
48161;SDS011;33950;48.154;16.316;2022-12-18T05:27:59;39.08;;;15.02;;
48161;SDS011;33950;48.154;16.316;2022-12-18T05:30:47;41.05;;;15.27;;
48161;SDS011;33950;48.154;16.316;2022-12-18T05:33:36;39.20;;;15.07;;
48161;SDS011;33950;48.154;16.316;2022-12-18T05:36:22;33.50;;;14.30;;
48161;SDS011;33950;48.154;16.316;2022-12-18T05:39:08;38.33;;;14.70;;
48161;SDS011;33950;48.154;16.316;2022-12-18T05:41:55;33.50;;;13.18;;
48161;SDS011;33950;48.154;16.316;2022-12-18T05:44:41;42.58;;;14.15;;
48161;SDS011;33950;48.154;16.316;2022-12-18T05:47:28;35.53;;;14.55;;
48161;SDS011;33950;48.154;16.316;2022-12-18T05:50:15;32.35;;;13.32;;
48161;SDS011;33950;48.154;16.316;2022-12-18T05:53:02;31.85;;;12.98;;
48161;SDS011;33950;48.154;16.316;2022-12-18T05:55:48;35.33;;;12.38;;
48161;SDS011;33950;48.154;16.316;2022-12-18T05:58:34;37.25;;;12.88;;
48161;SDS011;33950;48.154;16.316;2022-12-18T06:01:21;35.75;;;14.93;;
48161;SDS011;33950;48.154;16.316;2022-12-18T06:04:08;37.17;;;13.07;;
48161;SDS011;33950;48.154;16.316;2022-12-18T06:06:56;27.95;;;12.45;;
48161;SDS011;33950;48.154;16.316;2022-12-18T06:09:42;39.30;;;13.63;;
48161;SDS011;33950;48.154;16.316;2022-12-18T06:12:29;35.83;;;14.10;;
48161;SDS011;33950;48.154;16.316;2022-12-18T06:15:15;35.55;;;13.23;;
48161;SDS011;33950;48.154;16.316;2022-12-18T06:18:01;35.95;;;13.25;;
48161;SDS011;33950;48.154;16.316;2022-12-18T06:20:53;37.45;;;14.52;;
48161;SDS011;33950;48.154;16.316;2022-12-18T06:23:42;34.05;;;13.27;;
48161;SDS011;33950;48.154;16.316;2022-12-18T06:26:28;34.17;;;13.70;;
48161;SDS011;33950;48.154;16.316;2022-12-18T06:29:15;37.97;;;14.35;;
48161;SDS011;33950;48.154;16.316;2022-12-18T06:32:01;35.95;;;13.13;;
48161;SDS011;33950;48.154;16.316;2022-12-18T06:34:47;32.22;;;13.45;;
48161;SDS011;33950;48.154;16.316;2022-12-18T06:37:33;31.40;;;13.65;;
48161;SDS011;33950;48.154;16.316;2022-12-18T06:40:20;35.38;;;13.35;;
48161;SDS011;33950;48.154;16.316;2022-12-18T06:43:06;39.63;;;14.13;;
48161;SDS011;33950;48.154;16.316;2022-12-18T06:45:57;35.65;;;13.02;;
48161;SDS011;33950;48.154;16.316;2022-12-18T06:48:46;30.38;;;11.45;;
48161;SDS011;33950;48.154;16.316;2022-12-18T06:51:33;34.67;;;13.43;;
48161;SDS011;33950;48.154;16.316;2022-12-18T06:54:20;34.80;;;13.07;;
48161;SDS011;33950;48.154;16.316;2022-12-18T06:57:07;30.00;;;13.73;;
48161;SDS011;33950;48.154;16.316;2022-12-18T06:59:53;34.20;;;13.30;;
48161;SDS011;33950;48.154;16.316;2022-12-18T07:02:39;37.92;;;14.00;;
48161;SDS011;33950;48.154;16.316;2022-12-18T07:05:25;37.28;;;14.02;;
48161;SDS011;33950;48.154;16.316;2022-12-18T07:08:12;37.42;;;14.80;;
48161;SDS011;33950;48.154;16.316;2022-12-18T07:10:58;35.55;;;13.05;;
48161;SDS011;33950;48.154;16.316;2022-12-18T07:13:46;34.92;;;14.27;;
48161;SDS011;33950;48.154;16.316;2022-12-18T07:16:32;38.33;;;15.48;;
48161;SDS011;33950;48.154;16.316;2022-12-18T07:19:18;37.40;;;14.13;;
48161;SDS011;33950;48.154;16.316;2022-12-18T07:22:04;38.92;;;16.40;;
48161;SDS011;33950;48.154;16.316;2022-12-18T07:24:50;44.65;;;16.25;;
48161;SDS011;33950;48.154;16.316;2022-12-18T07:27:36;40.80;;;16.42;;
48161;SDS011;33950;48.154;16.316;2022-12-18T07:30:24;41.38;;;16.45;;
48161;SDS011;33950;48.154;16.316;2022-12-18T07:33:10;43.63;;;16.63;;
48161;SDS011;33950;48.154;16.316;2022-12-18T07:35:56;44.63;;;15.75;;
48161;SDS011;33950;48.154;16.316;2022-12-18T07:38:46;42.90;;;16.95;;
48161;SDS011;33950;48.154;16.316;2022-12-18T07:41:32;52.03;;;17.15;;
48161;SDS011;33950;48.154;16.316;2022-12-18T07:44:19;41.40;;;15.07;;
48161;SDS011;33950;48.154;16.316;2022-12-18T07:47:06;35.80;;;14.98;;
48161;SDS011;33950;48.154;16.316;2022-12-18T07:49:53;32.05;;;13.65;;
48161;SDS011;33950;48.154;16.316;2022-12-18T07:52:39;37.90;;;14.88;;
48161;SDS011;33950;48.154;16.316;2022-12-18T07:55:25;38.78;;;15.90;;
48161;SDS011;33950;48.154;16.316;2022-12-18T07:58:11;45.08;;;15.93;;
48161;SDS011;33950;48.154;16.316;2022-12-18T08:01:02;39.88;;;15.98;;
48161;SDS011;33950;48.154;16.316;2022-12-18T08:03:50;41.90;;;15.80;;
48161;SDS011;33950;48.154;16.316;2022-12-18T08:06:36;46.03;;;16.85;;
48161;SDS011;33950;48.154;16.316;2022-12-18T08:09:22;48.95;;;16.67;;
48161;SDS011;33950;48.154;16.316;2022-12-18T08:12:08;45.00;;;17.33;;
48161;SDS011;33950;48.154;16.316;2022-12-18T08:14:54;40.65;;;15.55;;
48161;SDS011;33950;48.154;16.316;2022-12-18T08:17:40;47.03;;;18.33;;
48161;SDS011;33950;48.154;16.316;2022-12-18T08:20:28;53.08;;;19.40;;
48161;SDS011;33950;48.154;16.316;2022-12-18T08:23:14;43.85;;;17.95;;
48161;SDS011;33950;48.154;16.316;2022-12-18T08:26:00;48.10;;;17.17;;
48161;SDS011;33950;48.154;16.316;2022-12-18T08:28:46;46.33;;;17.48;;
48161;SDS011;33950;48.154;16.316;2022-12-18T08:31:32;54.28;;;19.08;;
48161;SDS011;33950;48.154;16.316;2022-12-18T08:34:19;41.97;;;18.25;;
48161;SDS011;33950;48.154;16.316;2022-12-18T08:37:06;49.08;;;19.52;;
48161;SDS011;33950;48.154;16.316;2022-12-18T08:39:52;64.90;;;22.08;;
48161;SDS011;33950;48.154;16.316;2022-12-18T08:42:38;55.35;;;21.80;;
48161;SDS011;33950;48.154;16.316;2022-12-18T08:45:43;58.35;;;20.92;;
48161;SDS011;33950;48.154;16.316;2022-12-18T08:48:29;56.53;;;22.42;;
48161;SDS011;33950;48.154;16.316;2022-12-18T08:51:18;48.80;;;20.27;;
48161;SDS011;33950;48.154;16.316;2022-12-18T08:54:05;59.38;;;20.10;;
48161;SDS011;33950;48.154;16.316;2022-12-18T08:56:52;55.22;;;21.30;;
48161;SDS011;33950;48.154;16.316;2022-12-18T08:59:38;46.15;;;18.35;;
48161;SDS011;33950;48.154;16.316;2022-12-18T09:02:24;53.00;;;20.10;;
48161;SDS011;33950;48.154;16.316;2022-12-18T09:05:10;52.10;;;20.60;;
48161;SDS011;33950;48.154;16.316;2022-12-18T09:07:56;47.63;;;20.02;;
48161;SDS011;33950;48.154;16.316;2022-12-18T09:10:44;50.40;;;20.33;;
48161;SDS011;33950;48.154;16.316;2022-12-18T09:13:31;57.35;;;21.27;;
48161;SDS011;33950;48.154;16.316;2022-12-18T09:16:17;56.00;;;21.25;;
48161;SDS011;33950;48.154;16.316;2022-12-18T09:19:04;60.10;;;24.63;;
48161;SDS011;33950;48.154;16.316;2022-12-18T09:21:51;60.13;;;22.80;;
48161;SDS011;33950;48.154;16.316;2022-12-18T09:24:37;62.63;;;25.08;;
48161;SDS011;33950;48.154;16.316;2022-12-18T09:27:25;59.10;;;24.08;;
48161;SDS011;33950;48.154;16.316;2022-12-18T09:30:11;60.67;;;24.10;;
48161;SDS011;33950;48.154;16.316;2022-12-18T09:32:57;66.57;;;24.63;;
48161;SDS011;33950;48.154;16.316;2022-12-18T09:35:44;60.58;;;25.25;;
48161;SDS011;33950;48.154;16.316;2022-12-18T09:38:30;60.50;;;24.50;;
48161;SDS011;33950;48.154;16.316;2022-12-18T09:41:20;63.92;;;24.38;;
48161;SDS011;33950;48.154;16.316;2022-12-18T09:44:24;63.05;;;25.70;;
48161;SDS011;33950;48.154;16.316;2022-12-18T09:47:13;71.53;;;25.50;;
48161;SDS011;33950;48.154;16.316;2022-12-18T09:50:04;73.57;;;27.15;;
48161;SDS011;33950;48.154;16.316;2022-12-18T09:53:02;65.13;;;26.73;;
48161;SDS011;33950;48.154;16.316;2022-12-18T09:55:51;65.32;;;26.10;;
48161;SDS011;33950;48.154;16.316;2022-12-18T09:58:40;80.30;;;28.63;;
48161;SDS011;33950;48.154;16.316;2022-12-18T10:01:32;81.50;;;27.35;;
48161;SDS011;33950;48.154;16.316;2022-12-18T10:04:18;74.40;;;27.35;;
48161;SDS011;33950;48.154;16.316;2022-12-18T10:07:06;84.10;;;29.13;;
48161;SDS011;33950;48.154;16.316;2022-12-18T10:09:58;76.93;;;28.13;;
48161;SDS011;33950;48.154;16.316;2022-12-18T10:12:53;72.63;;;26.23;;
48161;SDS011;33950;48.154;16.316;2022-12-18T10:15:49;71.97;;;26.73;;
48161;SDS011;33950;48.154;16.316;2022-12-18T10:18:51;71.10;;;25.80;;
48161;SDS011;33950;48.154;16.316;2022-12-18T10:21:48;62.65;;;22.42;;
48161;SDS011;33950;48.154;16.316;2022-12-18T10:24:44;61.92;;;24.63;;
48161;SDS011;33950;48.154;16.316;2022-12-18T10:27:35;66.22;;;25.13;;
48161;SDS011;33950;48.154;16.316;2022-12-18T10:30:22;67.43;;;24.15;;
48161;SDS011;33950;48.154;16.316;2022-12-18T10:33:10;64.22;;;24.35;;
48161;SDS011;33950;48.154;16.316;2022-12-18T10:36:03;66.45;;;24.45;;
48161;SDS011;33950;48.154;16.316;2022-12-18T10:38:51;85.10;;;27.20;;
48161;SDS011;33950;48.154;16.316;2022-12-18T10:41:37;63.78;;;23.85;;
48161;SDS011;33950;48.154;16.316;2022-12-18T10:44:24;65.88;;;24.63;;
48161;SDS011;33950;48.154;16.316;2022-12-18T10:47:14;68.65;;;23.73;;
48161;SDS011;33950;48.154;16.316;2022-12-18T10:50:03;60.83;;;22.40;;
48161;SDS011;33950;48.154;16.316;2022-12-18T10:52:58;57.38;;;23.02;;
48161;SDS011;33950;48.154;16.316;2022-12-18T10:55:45;60.17;;;21.92;;
48161;SDS011;33950;48.154;16.316;2022-12-18T10:58:33;58.88;;;21.55;;
48161;SDS011;33950;48.154;16.316;2022-12-18T11:01:23;62.42;;;23.40;;
48161;SDS011;33950;48.154;16.316;2022-12-18T11:04:09;65.32;;;22.52;;
48161;SDS011;33950;48.154;16.316;2022-12-18T11:07:02;62.15;;;22.55;;
48161;SDS011;33950;48.154;16.316;2022-12-18T11:10:02;59.53;;;23.00;;
48161;SDS011;33950;48.154;16.316;2022-12-18T11:12:49;65.07;;;22.98;;
48161;SDS011;33950;48.154;16.316;2022-12-18T11:15:35;62.88;;;23.15;;
48161;SDS011;33950;48.154;16.316;2022-12-18T11:18:23;63.85;;;23.63;;
48161;SDS011;33950;48.154;16.316;2022-12-18T11:21:11;60.30;;;24.08;;
48161;SDS011;33950;48.154;16.316;2022-12-18T11:23:59;60.92;;;22.42;;
48161;SDS011;33950;48.154;16.316;2022-12-18T11:26:46;68.25;;;25.98;;
48161;SDS011;33950;48.154;16.316;2022-12-18T11:29:34;60.17;;;23.17;;
48161;SDS011;33950;48.154;16.316;2022-12-18T11:32:26;69.20;;;25.08;;
48161;SDS011;33950;48.154;16.316;2022-12-18T11:35:18;64.18;;;25.15;;
48161;SDS011;33950;48.154;16.316;2022-12-18T11:38:12;67.40;;;24.48;;
48161;SDS011;33950;48.154;16.316;2022-12-18T11:41:05;62.88;;;24.00;;
48161;SDS011;33950;48.154;16.316;2022-12-18T11:44:31;60.05;;;21.75;;
48161;SDS011;33950;48.154;16.316;2022-12-18T11:47:25;61.50;;;23.52;;
48161;SDS011;33950;48.154;16.316;2022-12-18T11:50:17;56.97;;;24.63;;
48161;SDS011;33950;48.154;16.316;2022-12-18T11:53:09;66.45;;;24.95;;
48161;SDS011;33950;48.154;16.316;2022-12-18T11:56:02;66.35;;;24.83;;
48161;SDS011;33950;48.154;16.316;2022-12-18T11:58:58;67.70;;;24.85;;
48161;SDS011;33950;48.154;16.316;2022-12-18T12:01:54;66.05;;;24.40;;
48161;SDS011;33950;48.154;16.316;2022-12-18T12:04:59;64.40;;;24.58;;
48161;SDS011;33950;48.154;16.316;2022-12-18T12:07:51;67.18;;;25.88;;
48161;SDS011;33950;48.154;16.316;2022-12-18T12:10:47;67.18;;;23.65;;
48161;SDS011;33950;48.154;16.316;2022-12-18T12:13:43;65.15;;;24.75;;
48161;SDS011;33950;48.154;16.316;2022-12-18T12:16:37;73.28;;;25.85;;
48161;SDS011;33950;48.154;16.316;2022-12-18T12:19:34;72.85;;;26.40;;
48161;SDS011;33950;48.154;16.316;2022-12-18T12:22:31;69.38;;;25.88;;
48161;SDS011;33950;48.154;16.316;2022-12-18T12:25:28;66.88;;;25.80;;
48161;SDS011;33950;48.154;16.316;2022-12-18T12:28:24;71.65;;;26.17;;
48161;SDS011;33950;48.154;16.316;2022-12-18T12:31:41;71.03;;;26.17;;
48161;SDS011;33950;48.154;16.316;2022-12-18T12:34:39;70.63;;;24.75;;
48161;SDS011;33950;48.154;16.316;2022-12-18T12:37:37;62.90;;;24.48;;
48161;SDS011;33950;48.154;16.316;2022-12-18T12:40:30;77.97;;;24.52;;
48161;SDS011;33950;48.154;16.316;2022-12-18T12:43:22;75.78;;;24.52;;
48161;SDS011;33950;48.154;16.316;2022-12-18T12:46:12;71.20;;;25.13;;
48161;SDS011;33950;48.154;16.316;2022-12-18T12:49:02;65.40;;;25.08;;
48161;SDS011;33950;48.154;16.316;2022-12-18T12:51:52;68.35;;;25.63;;
48161;SDS011;33950;48.154;16.316;2022-12-18T12:54:48;66.93;;;25.13;;
48161;SDS011;33950;48.154;16.316;2022-12-18T12:57:36;73.18;;;27.45;;
48161;SDS011;33950;48.154;16.316;2022-12-18T13:00:25;72.05;;;25.17;;
48161;SDS011;33950;48.154;16.316;2022-12-18T13:03:18;72.28;;;27.73;;
48161;SDS011;33950;48.154;16.316;2022-12-18T13:06:16;73.50;;;24.20;;
48161;SDS011;33950;48.154;16.316;2022-12-18T13:09:12;61.53;;;23.98;;
48161;SDS011;33950;48.154;16.316;2022-12-18T13:12:01;67.93;;;24.48;;
48161;SDS011;33950;48.154;16.316;2022-12-18T13:15:19;69.10;;;24.85;;
48161;SDS011;33950;48.154;16.316;2022-12-18T13:18:12;70.13;;;24.02;;
48161;SDS011;33950;48.154;16.316;2022-12-18T13:21:02;59.53;;;23.27;;
48161;SDS011;33950;48.154;16.316;2022-12-18T13:23:55;64.13;;;23.98;;
48161;SDS011;33950;48.154;16.316;2022-12-18T13:26:44;69.30;;;24.48;;
48161;SDS011;33950;48.154;16.316;2022-12-18T13:29:42;68.22;;;26.15;;
48161;SDS011;33950;48.154;16.316;2022-12-18T13:32:29;75.50;;;24.25;;
48161;SDS011;33950;48.154;16.316;2022-12-18T13:38:32;69.70;;;26.65;;
48161;SDS011;33950;48.154;16.316;2022-12-18T13:41:23;61.25;;;23.98;;
48161;SDS011;33950;48.154;16.316;2022-12-18T13:44:13;58.70;;;24.23;;
48161;SDS011;33950;48.154;16.316;2022-12-18T13:47:24;71.03;;;26.52;;
48161;SDS011;33950;48.154;16.316;2022-12-18T13:50:20;65.00;;;24.90;;
48161;SDS011;33950;48.154;16.316;2022-12-18T13:53:12;67.75;;;25.92;;
48161;SDS011;33950;48.154;16.316;2022-12-18T13:56:05;62.88;;;23.85;;
48161;SDS011;33950;48.154;16.316;2022-12-18T14:02:00;68.25;;;24.60;;
48161;SDS011;33950;48.154;16.316;2022-12-18T14:04:53;62.88;;;24.42;;
48161;SDS011;33950;48.154;16.316;2022-12-18T14:07:39;70.15;;;27.05;;
48161;SDS011;33950;48.154;16.316;2022-12-18T14:10:26;74.15;;;28.30;;
48161;SDS011;33950;48.154;16.316;2022-12-18T14:13:15;74.88;;;29.55;;
48161;SDS011;33950;48.154;16.316;2022-12-18T14:16:06;69.57;;;27.90;;
48161;SDS011;33950;48.154;16.316;2022-12-18T14:18:53;71.40;;;27.45;;
48161;SDS011;33950;48.154;16.316;2022-12-18T14:21:44;70.18;;;27.17;;
48161;SDS011;33950;48.154;16.316;2022-12-18T14:24:31;68.43;;;27.02;;
48161;SDS011;33950;48.154;16.316;2022-12-18T14:27:20;66.88;;;28.05;;
48161;SDS011;33950;48.154;16.316;2022-12-18T14:30:22;71.25;;;25.13;;
48161;SDS011;33950;48.154;16.316;2022-12-18T14:33:14;75.63;;;26.92;;
48161;SDS011;33950;48.154;16.316;2022-12-18T14:36:04;75.55;;;27.88;;
48161;SDS011;33950;48.154;16.316;2022-12-18T14:38:51;76.07;;;26.58;;
48161;SDS011;33950;48.154;16.316;2022-12-18T14:41:39;66.07;;;26.67;;
48161;SDS011;33950;48.154;16.316;2022-12-18T14:44:25;84.28;;;29.27;;
48161;SDS011;33950;48.154;16.316;2022-12-18T14:47:13;89.38;;;30.20;;
48161;SDS011;33950;48.154;16.316;2022-12-18T14:50:01;81.20;;;29.60;;
48161;SDS011;33950;48.154;16.316;2022-12-18T14:52:48;82.28;;;29.35;;
48161;SDS011;33950;48.154;16.316;2022-12-18T14:55:34;78.47;;;28.98;;
48161;SDS011;33950;48.154;16.316;2022-12-18T14:58:20;93.28;;;31.40;;
48161;SDS011;33950;48.154;16.316;2022-12-18T15:01:07;91.20;;;30.15;;
48161;SDS011;33950;48.154;16.316;2022-12-18T15:03:54;79.43;;;30.35;;
48161;SDS011;33950;48.154;16.316;2022-12-18T15:06:43;90.85;;;31.98;;
48161;SDS011;33950;48.154;16.316;2022-12-18T15:09:31;92.40;;;32.00;;
48161;SDS011;33950;48.154;16.316;2022-12-18T15:12:20;92.75;;;33.83;;
48161;SDS011;33950;48.154;16.316;2022-12-18T15:18:33;85.00;;;32.60;;
48161;SDS011;33950;48.154;16.316;2022-12-18T15:21:26;80.78;;;29.90;;
48161;SDS011;33950;48.154;16.316;2022-12-18T15:24:20;85.30;;;30.23;;
48161;SDS011;33950;48.154;16.316;2022-12-18T15:27:20;85.82;;;30.05;;
48161;SDS011;33950;48.154;16.316;2022-12-18T15:30:17;83.68;;;30.67;;
48161;SDS011;33950;48.154;16.316;2022-12-18T15:36:11;87.72;;;29.73;;
48161;SDS011;33950;48.154;16.316;2022-12-18T15:38:58;85.78;;;32.20;;
48161;SDS011;33950;48.154;16.316;2022-12-18T15:41:45;84.25;;;30.95;;
48161;SDS011;33950;48.154;16.316;2022-12-18T15:44:50;85.47;;;31.52;;
48161;SDS011;33950;48.154;16.316;2022-12-18T15:47:36;92.43;;;32.45;;
48161;SDS011;33950;48.154;16.316;2022-12-18T15:50:23;84.22;;;30.27;;
48161;SDS011;33950;48.154;16.316;2022-12-18T15:53:09;87.95;;;32.22;;
48161;SDS011;33950;48.154;16.316;2022-12-18T15:55:55;89.25;;;30.15;;
48161;SDS011;33950;48.154;16.316;2022-12-18T15:59:02;79.35;;;28.38;;
48161;SDS011;33950;48.154;16.316;2022-12-18T16:01:54;81.25;;;29.35;;
48161;SDS011;33950;48.154;16.316;2022-12-18T16:04:40;81.75;;;30.45;;
48161;SDS011;33950;48.154;16.316;2022-12-18T16:07:26;79.32;;;28.77;;
48161;SDS011;33950;48.154;16.316;2022-12-18T16:10:13;83.80;;;32.85;;
48161;SDS011;33950;48.154;16.316;2022-12-18T16:12:59;70.30;;;26.67;;
48161;SDS011;33950;48.154;16.316;2022-12-18T16:15:46;85.47;;;29.48;;
48161;SDS011;33950;48.154;16.316;2022-12-18T16:18:33;94.97;;;30.80;;
48161;SDS011;33950;48.154;16.316;2022-12-18T16:21:19;83.20;;;30.15;;
48161;SDS011;33950;48.154;16.316;2022-12-18T16:24:05;71.00;;;27.40;;
48161;SDS011;33950;48.154;16.316;2022-12-18T16:26:57;83.85;;;27.98;;
48161;SDS011;33950;48.154;16.316;2022-12-18T16:29:45;66.57;;;26.13;;
48161;SDS011;33950;48.154;16.316;2022-12-18T16:32:32;67.97;;;25.95;;
48161;SDS011;33950;48.154;16.316;2022-12-18T16:35:18;65.30;;;24.90;;